sensor_id;sensor_type;location;lat;lon;timestamp;temperature;humidity
3202;DHT22;34843;48.744;8.958;2023-05-10T00:01:31;12.60;99.90
3202;DHT22;34843;48.744;8.958;2023-05-10T00:03:57;12.50;99.90
3202;DHT22;34843;48.744;8.958;2023-05-10T00:06:22;12.40;99.90
3202;DHT22;34843;48.744;8.958;2023-05-10T00:08:48;12.30;99.90
3202;DHT22;34843;48.744;8.958;2023-05-10T00:11:13;12.20;99.90
3202;DHT22;34843;48.744;8.958;2023-05-10T00:13:40;12.20;99.90
3202;DHT22;34843;48.744;8.958;2023-05-10T00:16:05;12.20;99.90
3202;DHT22;34843;48.744;8.958;2023-05-10T00:18:31;12.10;99.90
3202;DHT22;34843;48.744;8.958;2023-05-10T00:20:57;12.10;99.90
3202;DHT22;34843;48.744;8.958;2023-05-10T00:23:22;12.00;99.90
3202;DHT22;34843;48.744;8.958;2023-05-10T00:25:48;12.00;99.90
3202;DHT22;34843;48.744;8.958;2023-05-10T00:28:13;12.00;99.90
3202;DHT22;34843;48.744;8.958;2023-05-10T00:30:38;12.00;99.90
3202;DHT22;34843;48.744;8.958;2023-05-10T00:33:04;12.00;99.90
3202;DHT22;34843;48.744;8.958;2023-05-10T00:35:29;12.00;99.90
3202;DHT22;34843;48.744;8.958;2023-05-10T00:37:55;12.00;99.90
3202;DHT22;34843;48.744;8.958;2023-05-10T00:40:21;12.00;99.90
3202;DHT22;34843;48.744;8.958;2023-05-10T00:42:46;12.00;99.90
3202;DHT22;34843;48.744;8.958;2023-05-10T00:45:12;12.00;99.90
3202;DHT22;34843;48.744;8.958;2023-05-10T00:47:37;12.10;99.90
3202;DHT22;34843;48.744;8.958;2023-05-10T00:50:04;12.10;99.90
3202;DHT22;34843;48.744;8.958;2023-05-10T00:52:30;12.10;99.90
3202;DHT22;34843;48.744;8.958;2023-05-10T00:54:56;12.00;99.90
3202;DHT22;34843;48.744;8.958;2023-05-10T00:57:22;12.00;99.90
3202;DHT22;34843;48.744;8.958;2023-05-10T00:59:48;12.00;99.90
3202;DHT22;34843;48.744;8.958;2023-05-10T01:02:14;12.00;99.90
3202;DHT22;34843;48.744;8.958;2023-05-10T01:04:39;12.00;99.90
3202;DHT22;34843;48.744;8.958;2023-05-10T01:07:05;12.10;99.90
3202;DHT22;34843;48.744;8.958;2023-05-10T01:09:31;12.10;99.90
3202;DHT22;34843;48.744;8.958;2023-05-10T01:11:58;12.10;99.90
3202;DHT22;34843;48.744;8.958;2023-05-10T01:14:25;12.10;99.90
3202;DHT22;34843;48.744;8.958;2023-05-10T01:16:52;12.20;99.90
3202;DHT22;34843;48.744;8.958;2023-05-10T01:19:23;12.20;99.90
3202;DHT22;34843;48.744;8.958;2023-05-10T01:30:58;12.10;99.90
3202;DHT22;34843;48.744;8.958;2023-05-10T01:37:01;12.00;99.90
3202;DHT22;34843;48.744;8.958;2023-05-10T01:42:22;12.00;99.90
3202;DHT22;34843;48.744;8.958;2023-05-10T01:44:57;12.10;99.90
3202;DHT22;34843;48.744;8.958;2023-05-10T01:47:38;12.10;99.90
3202;DHT22;34843;48.744;8.958;2023-05-10T01:50:10;12.00;99.90
3202;DHT22;34843;48.744;8.958;2023-05-10T01:52:41;12.10;99.90
3202;DHT22;34843;48.744;8.958;2023-05-10T01:55:10;12.00;99.90
3202;DHT22;34843;48.744;8.958;2023-05-10T01:57:39;12.10;99.90
3202;DHT22;34843;48.744;8.958;2023-05-10T02:00:06;12.10;99.90
3202;DHT22;34843;48.744;8.958;2023-05-10T02:02:38;12.10;99.90
3202;DHT22;34843;48.744;8.958;2023-05-10T02:05:07;12.10;99.90
3202;DHT22;34843;48.744;8.958;2023-05-10T02:07:35;12.10;99.90
3202;DHT22;34843;48.744;8.958;2023-05-10T02:10:02;12.10;99.90
3202;DHT22;34843;48.744;8.958;2023-05-10T02:12:31;12.10;99.90
3202;DHT22;34843;48.744;8.958;2023-05-10T02:14:59;12.20;99.90
3202;DHT22;34843;48.744;8.958;2023-05-10T02:17:26;12.20;99.90
3202;DHT22;34843;48.744;8.958;2023-05-10T02:19:53;12.10;99.90
3202;DHT22;34843;48.744;8.958;2023-05-10T02:22:20;12.10;99.90
3202;DHT22;34843;48.744;8.958;2023-05-10T02:24:47;12.10;99.90
3202;DHT22;34843;48.744;8.958;2023-05-10T02:27:14;12.00;99.90
3202;DHT22;34843;48.744;8.958;2023-05-10T02:29:41;12.00;99.90
3202;DHT22;34843;48.744;8.958;2023-05-10T02:32:07;12.00;99.90
3202;DHT22;34843;48.744;8.958;2023-05-10T02:34:34;11.90;99.90
3202;DHT22;34843;48.744;8.958;2023-05-10T02:37:00;11.90;99.90
3202;DHT22;34843;48.744;8.958;2023-05-10T02:39:28;11.80;99.90
3202;DHT22;34843;48.744;8.958;2023-05-10T02:41:55;11.80;99.90
3202;DHT22;34843;48.744;8.958;2023-05-10T02:44:22;11.80;99.90
3202;DHT22;34843;48.744;8.958;2023-05-10T02:46:48;11.80;99.90
3202;DHT22;34843;48.744;8.958;2023-05-10T02:49:15;11.80;99.90
3202;DHT22;34843;48.744;8.958;2023-05-10T02:51:44;11.90;99.90
3202;DHT22;34843;48.744;8.958;2023-05-10T02:54:18;12.00;99.90
3202;DHT22;34843;48.744;8.958;2023-05-10T02:56:51;12.00;99.90
3202;DHT22;34843;48.744;8.958;2023-05-10T02:59:19;12.10;99.90
3202;DHT22;34843;48.744;8.958;2023-05-10T03:01:44;12.10;99.90
3202;DHT22;34843;48.744;8.958;2023-05-10T03:04:10;12.20;99.90
3202;DHT22;34843;48.744;8.958;2023-05-10T03:06:36;12.30;99.90
3202;DHT22;34843;48.744;8.958;2023-05-10T03:09:02;12.30;99.90
3202;DHT22;34843;48.744;8.958;2023-05-10T03:12:00;12.30;99.90
3202;DHT22;34843;48.744;8.958;2023-05-10T03:14:57;12.40;99.90
3202;DHT22;34843;48.744;8.958;2023-05-10T03:17:45;12.40;99.90
3202;DHT22;34843;48.744;8.958;2023-05-10T03:20:20;12.50;99.90
3202;DHT22;34843;48.744;8.958;2023-05-10T03:23:02;12.50;99.90
3202;DHT22;34843;48.744;8.958;2023-05-10T03:25:31;12.50;99.90
3202;DHT22;34843;48.744;8.958;2023-05-10T03:27:57;12.40;99.90
3202;DHT22;34843;48.744;8.958;2023-05-10T03:30:24;12.40;99.90
3202;DHT22;34843;48.744;8.958;2023-05-10T03:32:50;12.40;99.90
3202;DHT22;34843;48.744;8.958;2023-05-10T03:35:15;12.30;99.90
3202;DHT22;34843;48.744;8.958;2023-05-10T03:37:41;12.30;99.90
3202;DHT22;34843;48.744;8.958;2023-05-10T03:40:07;12.30;99.90
3202;DHT22;34843;48.744;8.958;2023-05-10T03:42:33;12.30;99.90
3202;DHT22;34843;48.744;8.958;2023-05-10T03:44:58;12.20;99.90
3202;DHT22;34843;48.744;8.958;2023-05-10T03:47:24;12.20;99.90
3202;DHT22;34843;48.744;8.958;2023-05-10T03:49:49;12.20;99.90
3202;DHT22;34843;48.744;8.958;2023-05-10T03:52:15;12.10;99.90
3202;DHT22;34843;48.744;8.958;2023-05-10T03:54:40;12.20;99.90
3202;DHT22;34843;48.744;8.958;2023-05-10T03:57:06;12.10;99.90
3202;DHT22;34843;48.744;8.958;2023-05-10T03:59:32;12.10;99.90
3202;DHT22;34843;48.744;8.958;2023-05-10T04:01:57;12.10;99.90
3202;DHT22;34843;48.744;8.958;2023-05-10T04:04:23;12.10;99.90
3202;DHT22;34843;48.744;8.958;2023-05-10T04:06:48;12.10;99.90
3202;DHT22;34843;48.744;8.958;2023-05-10T04:09:14;12.20;99.90
3202;DHT22;34843;48.744;8.958;2023-05-10T04:11:39;12.10;99.90
3202;DHT22;34843;48.744;8.958;2023-05-10T04:14:05;12.10;99.90
3202;DHT22;34843;48.744;8.958;2023-05-10T04:16:30;12.20;99.90
3202;DHT22;34843;48.744;8.958;2023-05-10T04:18:56;12.20;99.90
3202;DHT22;34843;48.744;8.958;2023-05-10T04:21:21;12.20;99.90
3202;DHT22;34843;48.744;8.958;2023-05-10T04:23:47;12.20;99.90
3202;DHT22;34843;48.744;8.958;2023-05-10T04:26:13;12.30;99.90
3202;DHT22;34843;48.744;8.958;2023-05-10T04:28:38;12.30;99.90
3202;DHT22;34843;48.744;8.958;2023-05-10T04:31:05;12.30;99.90
3202;DHT22;34843;48.744;8.958;2023-05-10T04:33:31;12.30;99.90
3202;DHT22;34843;48.744;8.958;2023-05-10T04:35:57;12.30;99.90
3202;DHT22;34843;48.744;8.958;2023-05-10T04:38:23;12.30;99.90
3202;DHT22;34843;48.744;8.958;2023-05-10T04:40:48;12.40;99.90
3202;DHT22;34843;48.744;8.958;2023-05-10T04:43:14;12.40;99.90
3202;DHT22;34843;48.744;8.958;2023-05-10T04:45:39;12.40;99.90
3202;DHT22;34843;48.744;8.958;2023-05-10T04:48:05;12.50;99.90
3202;DHT22;34843;48.744;8.958;2023-05-10T04:50:31;12.50;99.90
3202;DHT22;34843;48.744;8.958;2023-05-10T04:52:57;12.50;99.90
3202;DHT22;34843;48.744;8.958;2023-05-10T04:55:22;12.60;99.90
3202;DHT22;34843;48.744;8.958;2023-05-10T04:57:48;12.60;99.90
3202;DHT22;34843;48.744;8.958;2023-05-10T05:00:14;12.60;99.90
3202;DHT22;34843;48.744;8.958;2023-05-10T05:02:42;12.60;99.90
3202;DHT22;34843;48.744;8.958;2023-05-10T05:05:09;12.70;99.90
3202;DHT22;34843;48.744;8.958;2023-05-10T05:07:34;12.60;99.90
3202;DHT22;34843;48.744;8.958;2023-05-10T05:10:00;12.60;99.90
3202;DHT22;34843;48.744;8.958;2023-05-10T05:12:25;12.60;99.90
3202;DHT22;34843;48.744;8.958;2023-05-10T05:14:51;12.60;99.90
3202;DHT22;34843;48.744;8.958;2023-05-10T05:17:16;12.70;99.90
3202;DHT22;34843;48.744;8.958;2023-05-10T05:19:42;12.70;99.90
3202;DHT22;34843;48.744;8.958;2023-05-10T05:22:07;12.80;99.90
3202;DHT22;34843;48.744;8.958;2023-05-10T05:24:36;12.90;99.90
3202;DHT22;34843;48.744;8.958;2023-05-10T05:27:04;12.90;99.90
3202;DHT22;34843;48.744;8.958;2023-05-10T05:29:31;13.00;99.90
3202;DHT22;34843;48.744;8.958;2023-05-10T05:31:56;13.10;99.90
3202;DHT22;34843;48.744;8.958;2023-05-10T05:34:22;13.10;99.90
3202;DHT22;34843;48.744;8.958;2023-05-10T05:36:48;13.20;99.90
3202;DHT22;34843;48.744;8.958;2023-05-10T05:39:13;13.30;99.90
3202;DHT22;34843;48.744;8.958;2023-05-10T05:41:39;13.30;99.90
3202;DHT22;34843;48.744;8.958;2023-05-10T05:44:04;13.50;99.90
3202;DHT22;34843;48.744;8.958;2023-05-10T05:46:30;13.60;99.90
3202;DHT22;34843;48.744;8.958;2023-05-10T05:48:55;13.60;99.90
3202;DHT22;34843;48.744;8.958;2023-05-10T05:51:21;13.70;99.90
3202;DHT22;34843;48.744;8.958;2023-05-10T05:53:46;13.80;99.90
3202;DHT22;34843;48.744;8.958;2023-05-10T05:56:12;13.90;99.90
3202;DHT22;34843;48.744;8.958;2023-05-10T05:58:37;14.00;99.90
3202;DHT22;34843;48.744;8.958;2023-05-10T06:01:03;14.00;99.90
3202;DHT22;34843;48.744;8.958;2023-05-10T06:03:28;13.40;99.90
3202;DHT22;34843;48.744;8.958;2023-05-10T06:05:54;14.10;99.90
3202;DHT22;34843;48.744;8.958;2023-05-10T06:08:19;14.00;99.90
3202;DHT22;34843;48.744;8.958;2023-05-10T06:10:46;14.00;99.90
3202;DHT22;34843;48.744;8.958;2023-05-10T06:13:11;13.90;99.90
3202;DHT22;34843;48.744;8.958;2023-05-10T06:15:37;13.80;99.90
3202;DHT22;34843;48.744;8.958;2023-05-10T06:18:03;13.80;99.90
3202;DHT22;34843;48.744;8.958;2023-05-10T06:20:28;13.80;99.90
3202;DHT22;34843;48.744;8.958;2023-05-10T06:22:54;13.80;99.90
3202;DHT22;34843;48.744;8.958;2023-05-10T06:25:20;13.80;99.90
3202;DHT22;34843;48.744;8.958;2023-05-10T06:27:45;13.80;99.90
3202;DHT22;34843;48.744;8.958;2023-05-10T06:30:11;13.80;99.90
3202;DHT22;34843;48.744;8.958;2023-05-10T06:32:38;13.80;99.90
3202;DHT22;34843;48.744;8.958;2023-05-10T06:35:04;13.80;99.90
3202;DHT22;34843;48.744;8.958;2023-05-10T06:37:29;13.80;99.90
3202;DHT22;34843;48.744;8.958;2023-05-10T06:39:55;13.90;99.90
3202;DHT22;34843;48.744;8.958;2023-05-10T06:42:21;14.20;99.90
3202;DHT22;34843;48.744;8.958;2023-05-10T06:44:46;14.40;99.90
3202;DHT22;34843;48.744;8.958;2023-05-10T06:47:12;14.60;99.90
3202;DHT22;34843;48.744;8.958;2023-05-10T06:49:37;14.90;99.90
3202;DHT22;34843;48.744;8.958;2023-05-10T06:52:03;15.10;99.90
3202;DHT22;34843;48.744;8.958;2023-05-10T06:54:28;15.20;99.90
3202;DHT22;34843;48.744;8.958;2023-05-10T06:56:54;15.40;99.90
3202;DHT22;34843;48.744;8.958;2023-05-10T06:59:19;15.70;99.90
3202;DHT22;34843;48.744;8.958;2023-05-10T07:01:46;15.90;99.90
3202;DHT22;34843;48.744;8.958;2023-05-10T07:04:12;16.10;99.90
3202;DHT22;34843;48.744;8.958;2023-05-10T07:06:38;16.40;99.90
3202;DHT22;34843;48.744;8.958;2023-05-10T07:09:04;16.60;99.90
3202;DHT22;34843;48.744;8.958;2023-05-10T07:11:29;16.70;99.90
3202;DHT22;34843;48.744;8.958;2023-05-10T07:13:55;16.90;99.90
3202;DHT22;34843;48.744;8.958;2023-05-10T07:16:20;17.00;99.90
3202;DHT22;34843;48.744;8.958;2023-05-10T07:18:46;17.10;99.90
3202;DHT22;34843;48.744;8.958;2023-05-10T07:21:12;17.20;99.90
3202;DHT22;34843;48.744;8.958;2023-05-10T07:23:37;17.30;99.90
3202;DHT22;34843;48.744;8.958;2023-05-10T07:26:03;17.30;99.90
3202;DHT22;34843;48.744;8.958;2023-05-10T07:28:29;17.40;99.90
3202;DHT22;34843;48.744;8.958;2023-05-10T07:30:54;17.40;99.90
3202;DHT22;34843;48.744;8.958;2023-05-10T07:33:20;17.30;99.90
3202;DHT22;34843;48.744;8.958;2023-05-10T07:35:45;17.20;99.90
3202;DHT22;34843;48.744;8.958;2023-05-10T07:38:11;17.30;99.90
3202;DHT22;34843;48.744;8.958;2023-05-10T07:40:37;17.40;99.90
3202;DHT22;34843;48.744;8.958;2023-05-10T07:43:03;17.50;99.90
3202;DHT22;34843;48.744;8.958;2023-05-10T07:45:29;17.50;99.90
3202;DHT22;34843;48.744;8.958;2023-05-10T07:47:54;17.40;99.90
3202;DHT22;34843;48.744;8.958;2023-05-10T07:50:20;17.30;99.90
3202;DHT22;34843;48.744;8.958;2023-05-10T07:52:46;17.20;99.90
3202;DHT22;34843;48.744;8.958;2023-05-10T07:55:12;17.20;99.90
3202;DHT22;34843;48.744;8.958;2023-05-10T07:57:38;17.30;99.90
3202;DHT22;34843;48.744;8.958;2023-05-10T08:00:04;17.40;99.90
3202;DHT22;34843;48.744;8.958;2023-05-10T08:02:30;17.60;99.90
3202;DHT22;34843;48.744;8.958;2023-05-10T08:04:55;17.60;99.90
3202;DHT22;34843;48.744;8.958;2023-05-10T08:07:21;17.60;99.90
3202;DHT22;34843;48.744;8.958;2023-05-10T08:09:47;17.70;99.90
3202;DHT22;34843;48.744;8.958;2023-05-10T08:12:12;17.90;99.90
3202;DHT22;34843;48.744;8.958;2023-05-10T08:14:38;17.90;99.90
3202;DHT22;34843;48.744;8.958;2023-05-10T08:17:03;17.90;99.90
3202;DHT22;34843;48.744;8.958;2023-05-10T08:19:29;17.60;99.90
3202;DHT22;34843;48.744;8.958;2023-05-10T08:21:55;17.40;99.90
3202;DHT22;34843;48.744;8.958;2023-05-10T08:24:21;17.60;99.90
3202;DHT22;34843;48.744;8.958;2023-05-10T08:26:47;17.40;99.90
3202;DHT22;34843;48.744;8.958;2023-05-10T08:29:13;17.60;99.90
3202;DHT22;34843;48.744;8.958;2023-05-10T08:31:39;18.50;99.90
3202;DHT22;34843;48.744;8.958;2023-05-10T08:34:04;18.10;99.90
3202;DHT22;34843;48.744;8.958;2023-05-10T08:36:30;18.10;99.90
3202;DHT22;34843;48.744;8.958;2023-05-10T08:38:57;17.80;99.90
3202;DHT22;34843;48.744;8.958;2023-05-10T08:41:23;17.40;99.90
3202;DHT22;34843;48.744;8.958;2023-05-10T08:43:54;17.20;99.90
3202;DHT22;34843;48.744;8.958;2023-05-10T08:46:21;17.30;99.90
3202;DHT22;34843;48.744;8.958;2023-05-10T08:48:49;17.50;99.90
3202;DHT22;34843;48.744;8.958;2023-05-10T08:51:22;17.50;99.90
3202;DHT22;34843;48.744;8.958;2023-05-10T08:53:48;17.50;99.90
3202;DHT22;34843;48.744;8.958;2023-05-10T08:56:13;17.50;99.90
3202;DHT22;34843;48.744;8.958;2023-05-10T08:58:41;17.70;99.90
3202;DHT22;34843;48.744;8.958;2023-05-10T09:01:07;17.80;99.90
3202;DHT22;34843;48.744;8.958;2023-05-10T09:03:34;17.50;99.90
3202;DHT22;34843;48.744;8.958;2023-05-10T09:06:00;17.40;99.90
3202;DHT22;34843;48.744;8.958;2023-05-10T09:08:26;17.10;99.90
3202;DHT22;34843;48.744;8.958;2023-05-10T09:10:53;17.10;99.90
3202;DHT22;34843;48.744;8.958;2023-05-10T09:13:19;16.90;99.90
3202;DHT22;34843;48.744;8.958;2023-05-10T09:15:47;16.70;99.90
3202;DHT22;34843;48.744;8.958;2023-05-10T09:18:13;16.70;99.90
3202;DHT22;34843;48.744;8.958;2023-05-10T09:20:38;16.80;99.90
3202;DHT22;34843;48.744;8.958;2023-05-10T09:23:04;17.00;99.90
3202;DHT22;34843;48.744;8.958;2023-05-10T09:25:30;17.40;99.90
3202;DHT22;34843;48.744;8.958;2023-05-10T09:27:58;17.50;99.90
3202;DHT22;34843;48.744;8.958;2023-05-10T09:30:28;17.80;99.90
3202;DHT22;34843;48.744;8.958;2023-05-10T09:32:55;18.40;99.90
3202;DHT22;34843;48.744;8.958;2023-05-10T09:35:23;18.90;99.90
3202;DHT22;34843;48.744;8.958;2023-05-10T09:37:51;19.00;99.90
3202;DHT22;34843;48.744;8.958;2023-05-10T09:40:18;18.70;99.90
3202;DHT22;34843;48.744;8.958;2023-05-10T09:43:01;18.00;99.90
3202;DHT22;34843;48.744;8.958;2023-05-10T09:45:32;17.90;99.90
3202;DHT22;34843;48.744;8.958;2023-05-10T09:47:58;18.10;99.90
3202;DHT22;34843;48.744;8.958;2023-05-10T09:50:25;18.50;99.90
3202;DHT22;34843;48.744;8.958;2023-05-10T09:52:51;18.90;99.90
3202;DHT22;34843;48.744;8.958;2023-05-10T09:55:19;19.10;99.90
3202;DHT22;34843;48.744;8.958;2023-05-10T09:57:46;18.90;99.90
3202;DHT22;34843;48.744;8.958;2023-05-10T10:00:19;18.50;99.90
3202;DHT22;34843;48.744;8.958;2023-05-10T10:02:54;18.40;99.90
3202;DHT22;34843;48.744;8.958;2023-05-10T10:05:20;18.50;99.90
3202;DHT22;34843;48.744;8.958;2023-05-10T10:07:45;18.30;99.90
3202;DHT22;34843;48.744;8.958;2023-05-10T10:10:11;18.30;99.90
3202;DHT22;34843;48.744;8.958;2023-05-10T10:12:39;18.20;99.90
3202;DHT22;34843;48.744;8.958;2023-05-10T10:15:06;18.20;99.90
3202;DHT22;34843;48.744;8.958;2023-05-10T10:17:32;18.10;99.90
3202;DHT22;34843;48.744;8.958;2023-05-10T10:20:02;18.00;99.90
3202;DHT22;34843;48.744;8.958;2023-05-10T10:22:28;18.00;99.90
3202;DHT22;34843;48.744;8.958;2023-05-10T10:24:54;18.20;99.90
3202;DHT22;34843;48.744;8.958;2023-05-10T10:27:22;18.30;99.90
3202;DHT22;34843;48.744;8.958;2023-05-10T10:32:46;18.30;99.90
3202;DHT22;34843;48.744;8.958;2023-05-10T10:35:17;17.70;99.90
3202;DHT22;34843;48.744;8.958;2023-05-10T10:37:47;17.00;99.90
3202;DHT22;34843;48.744;8.958;2023-05-10T10:42:48;16.40;99.90
3202;DHT22;34843;48.744;8.958;2023-05-10T10:45:15;16.10;99.90
3202;DHT22;34843;48.744;8.958;2023-05-10T10:47:41;15.70;99.90
3202;DHT22;34843;48.744;8.958;2023-05-10T10:50:08;15.40;99.90
3202;DHT22;34843;48.744;8.958;2023-05-10T10:52:36;15.20;99.90
3202;DHT22;34843;48.744;8.958;2023-05-10T10:55:13;15.10;99.90
3202;DHT22;34843;48.744;8.958;2023-05-10T10:57:52;15.40;99.90
3202;DHT22;34843;48.744;8.958;2023-05-10T11:03:09;15.50;99.90
3202;DHT22;34843;48.744;8.958;2023-05-10T11:05:45;15.50;99.90
3202;DHT22;34843;48.744;8.958;2023-05-10T11:13:43;15.50;99.90
3202;DHT22;34843;48.744;8.958;2023-05-10T11:16:14;15.80;99.90
3202;DHT22;34843;48.744;8.958;2023-05-10T11:18:40;15.70;99.90
3202;DHT22;34843;48.744;8.958;2023-05-10T11:21:08;15.70;99.90
3202;DHT22;34843;48.744;8.958;2023-05-10T11:23:50;15.70;99.90
3202;DHT22;34843;48.744;8.958;2023-05-10T11:26:16;15.80;99.90
3202;DHT22;34843;48.744;8.958;2023-05-10T11:28:47;15.70;99.90
3202;DHT22;34843;48.744;8.958;2023-05-10T11:31:14;15.90;99.90
3202;DHT22;34843;48.744;8.958;2023-05-10T11:33:48;16.10;99.90
3202;DHT22;34843;48.744;8.958;2023-05-10T11:36:21;16.00;99.90
3202;DHT22;34843;48.744;8.958;2023-05-10T11:38:47;15.90;99.90
3202;DHT22;34843;48.744;8.958;2023-05-10T11:41:15;16.10;99.90
3202;DHT22;34843;48.744;8.958;2023-05-10T11:43:41;16.10;99.90
3202;DHT22;34843;48.744;8.958;2023-05-10T11:46:09;16.20;99.90
3202;DHT22;34843;48.744;8.958;2023-05-10T11:48:35;16.50;99.90
3202;DHT22;34843;48.744;8.958;2023-05-10T11:51:01;16.80;99.90
3202;DHT22;34843;48.744;8.958;2023-05-10T11:53:30;17.00;99.90
3202;DHT22;34843;48.744;8.958;2023-05-10T11:56:09;16.80;99.90
3202;DHT22;34843;48.744;8.958;2023-05-10T11:58:36;16.90;99.90
3202;DHT22;34843;48.744;8.958;2023-05-10T12:01:03;18.80;99.90
3202;DHT22;34843;48.744;8.958;2023-05-10T12:03:29;17.50;99.90
3202;DHT22;34843;48.744;8.958;2023-05-10T12:05:56;17.70;99.90
3202;DHT22;34843;48.744;8.958;2023-05-10T12:08:23;17.70;99.90
3202;DHT22;34843;48.744;8.958;2023-05-10T12:10:49;17.60;99.90
3202;DHT22;34843;48.744;8.958;2023-05-10T12:13:15;17.60;99.90
3202;DHT22;34843;48.744;8.958;2023-05-10T12:15:41;17.80;99.90
3202;DHT22;34843;48.744;8.958;2023-05-10T12:18:14;17.90;99.90
3202;DHT22;34843;48.744;8.958;2023-05-10T12:20:40;17.90;99.90
3202;DHT22;34843;48.744;8.958;2023-05-10T12:23:08;17.80;99.90
3202;DHT22;34843;48.744;8.958;2023-05-10T12:25:36;17.50;99.90
3202;DHT22;34843;48.744;8.958;2023-05-10T12:28:06;17.40;99.90
3202;DHT22;34843;48.744;8.958;2023-05-10T12:30:33;17.10;99.90
3202;DHT22;34843;48.744;8.958;2023-05-10T12:33:13;17.10;99.90
3202;DHT22;34843;48.744;8.958;2023-05-10T12:35:47;16.90;99.90
3202;DHT22;34843;48.744;8.958;2023-05-10T12:38:38;17.10;99.90
3202;DHT22;34843;48.744;8.958;2023-05-10T12:41:06;17.30;99.90
3202;DHT22;34843;48.744;8.958;2023-05-10T12:43:32;17.40;99.90
3202;DHT22;34843;48.744;8.958;2023-05-10T12:46:04;17.40;99.90
3202;DHT22;34843;48.744;8.958;2023-05-10T12:48:29;17.60;99.90
3202;DHT22;34843;48.744;8.958;2023-05-10T12:50:56;17.40;99.90
3202;DHT22;34843;48.744;8.958;2023-05-10T12:53:22;17.50;99.90
3202;DHT22;34843;48.744;8.958;2023-05-10T12:55:47;17.70;99.90
3202;DHT22;34843;48.744;8.958;2023-05-10T12:58:13;18.00;99.90
3202;DHT22;34843;48.744;8.958;2023-05-10T13:00:39;18.20;99.90
3202;DHT22;34843;48.744;8.958;2023-05-10T13:03:05;18.50;99.90
3202;DHT22;34843;48.744;8.958;2023-05-10T13:05:32;18.40;99.90
3202;DHT22;34843;48.744;8.958;2023-05-10T13:07:58;18.40;99.90
3202;DHT22;34843;48.744;8.958;2023-05-10T13:10:23;18.10;99.90
3202;DHT22;34843;48.744;8.958;2023-05-10T13:12:50;17.90;99.90
3202;DHT22;34843;48.744;8.958;2023-05-10T13:15:15;17.60;99.90
3202;DHT22;34843;48.744;8.958;2023-05-10T13:17:42;17.50;99.90
3202;DHT22;34843;48.744;8.958;2023-05-10T13:20:08;17.60;99.90
3202;DHT22;34843;48.744;8.958;2023-05-10T13:22:35;17.60;99.90
3202;DHT22;34843;48.744;8.958;2023-05-10T13:25:01;17.60;99.90
3202;DHT22;34843;48.744;8.958;2023-05-10T13:27:26;17.80;99.90
3202;DHT22;34843;48.744;8.958;2023-05-10T13:29:53;18.00;99.90
3202;DHT22;34843;48.744;8.958;2023-05-10T13:32:18;18.10;99.90
3202;DHT22;34843;48.744;8.958;2023-05-10T13:34:44;18.20;99.90
3202;DHT22;34843;48.744;8.958;2023-05-10T13:37:09;18.40;99.90
3202;DHT22;34843;48.744;8.958;2023-05-10T13:39:35;18.20;99.90
3202;DHT22;34843;48.744;8.958;2023-05-10T13:42:03;18.20;99.90
3202;DHT22;34843;48.744;8.958;2023-05-10T13:44:28;18.30;99.90
3202;DHT22;34843;48.744;8.958;2023-05-10T13:46:54;18.30;99.90
3202;DHT22;34843;48.744;8.958;2023-05-10T13:49:20;18.10;99.90
3202;DHT22;34843;48.744;8.958;2023-05-10T13:51:46;18.20;99.90
3202;DHT22;34843;48.744;8.958;2023-05-10T13:54:12;18.30;99.90
3202;DHT22;34843;48.744;8.958;2023-05-10T13:56:38;18.20;99.90
3202;DHT22;34843;48.744;8.958;2023-05-10T13:59:03;18.00;99.90
3202;DHT22;34843;48.744;8.958;2023-05-10T14:01:29;18.10;99.90
3202;DHT22;34843;48.744;8.958;2023-05-10T14:03:54;18.10;99.90
3202;DHT22;34843;48.744;8.958;2023-05-10T14:06:20;18.40;99.90
3202;DHT22;34843;48.744;8.958;2023-05-10T14:08:46;18.60;99.90
3202;DHT22;34843;48.744;8.958;2023-05-10T14:11:12;18.70;99.90
3202;DHT22;34843;48.744;8.958;2023-05-10T14:13:38;18.60;99.90
3202;DHT22;34843;48.744;8.958;2023-05-10T14:16:03;18.80;99.90
3202;DHT22;34843;48.744;8.958;2023-05-10T14:18:29;18.80;99.90
3202;DHT22;34843;48.744;8.958;2023-05-10T14:20:55;18.70;99.90
3202;DHT22;34843;48.744;8.958;2023-05-10T14:23:22;18.70;99.90
3202;DHT22;34843;48.744;8.958;2023-05-10T14:25:50;18.60;99.90
3202;DHT22;34843;48.744;8.958;2023-05-10T14:28:16;18.10;99.90
3202;DHT22;34843;48.744;8.958;2023-05-10T14:30:43;17.90;99.90
3202;DHT22;34843;48.744;8.958;2023-05-10T14:33:08;17.70;99.90
3202;DHT22;34843;48.744;8.958;2023-05-10T14:35:34;17.50;99.90
3202;DHT22;34843;48.744;8.958;2023-05-10T14:37:59;17.40;99.90
3202;DHT22;34843;48.744;8.958;2023-05-10T14:40:25;17.40;99.90
3202;DHT22;34843;48.744;8.958;2023-05-10T14:42:51;17.20;99.90
3202;DHT22;34843;48.744;8.958;2023-05-10T14:45:18;17.30;99.90
3202;DHT22;34843;48.744;8.958;2023-05-10T14:47:43;17.40;99.90
3202;DHT22;34843;48.744;8.958;2023-05-10T14:50:09;17.50;99.90
3202;DHT22;34843;48.744;8.958;2023-05-10T14:52:35;17.40;99.90
3202;DHT22;34843;48.744;8.958;2023-05-10T14:55:00;17.60;99.90
3202;DHT22;34843;48.744;8.958;2023-05-10T14:57:26;17.80;99.90
3202;DHT22;34843;48.744;8.958;2023-05-10T14:59:55;17.90;99.90
3202;DHT22;34843;48.744;8.958;2023-05-10T15:02:20;18.00;99.90
3202;DHT22;34843;48.744;8.958;2023-05-10T15:04:46;17.80;99.90
3202;DHT22;34843;48.744;8.958;2023-05-10T15:07:12;17.80;99.90
3202;DHT22;34843;48.744;8.958;2023-05-10T15:09:40;17.70;99.90
3202;DHT22;34843;48.744;8.958;2023-05-10T15:12:05;17.70;99.90
3202;DHT22;34843;48.744;8.958;2023-05-10T15:14:30;17.70;99.90
3202;DHT22;34843;48.744;8.958;2023-05-10T15:16:58;17.70;99.90
3202;DHT22;34843;48.744;8.958;2023-05-10T15:19:23;17.50;99.90
3202;DHT22;34843;48.744;8.958;2023-05-10T15:21:49;17.40;99.90
3202;DHT22;34843;48.744;8.958;2023-05-10T15:24:14;17.40;99.90
3202;DHT22;34843;48.744;8.958;2023-05-10T15:26:40;17.50;99.90
3202;DHT22;34843;48.744;8.958;2023-05-10T15:29:06;17.50;99.90
3202;DHT22;34843;48.744;8.958;2023-05-10T15:31:31;17.60;99.90
3202;DHT22;34843;48.744;8.958;2023-05-10T15:34:00;17.50;99.90
3202;DHT22;34843;48.744;8.958;2023-05-10T15:36:26;17.40;99.90
3202;DHT22;34843;48.744;8.958;2023-05-10T15:38:52;17.30;99.90
3202;DHT22;34843;48.744;8.958;2023-05-10T15:41:18;17.20;99.90
3202;DHT22;34843;48.744;8.958;2023-05-10T15:43:43;17.40;99.90
3202;DHT22;34843;48.744;8.958;2023-05-10T15:46:09;17.40;99.90
3202;DHT22;34843;48.744;8.958;2023-05-10T15:48:34;17.40;99.90
3202;DHT22;34843;48.744;8.958;2023-05-10T15:51:00;17.40;99.90
3202;DHT22;34843;48.744;8.958;2023-05-10T15:53:25;17.40;99.90
3202;DHT22;34843;48.744;8.958;2023-05-10T15:55:51;17.40;99.90
3202;DHT22;34843;48.744;8.958;2023-05-10T15:58:16;17.40;99.90
3202;DHT22;34843;48.744;8.958;2023-05-10T16:00:42;17.40;99.90
3202;DHT22;34843;48.744;8.958;2023-05-10T16:03:07;17.50;99.90
3202;DHT22;34843;48.744;8.958;2023-05-10T16:05:33;17.70;99.90
3202;DHT22;34843;48.744;8.958;2023-05-10T16:08:00;17.80;99.90
3202;DHT22;34843;48.744;8.958;2023-05-10T16:10:26;17.70;99.90
3202;DHT22;34843;48.744;8.958;2023-05-10T16:12:53;17.60;99.90